sensor_id;sensor_type;location;lat;lon;timestamp;pressure;altitude;pressure_sealevel;temperature;humidity
3206;BME280;1615;53.602;11.418;2023-12-22T00:00:17;98092.88;;;7.59;59.14
3206;BME280;1615;53.602;11.418;2023-12-22T00:02:42;98026.25;;;7.12;57.75
3206;BME280;1615;53.602;11.418;2023-12-22T00:05:07;98078.84;;;7.48;57.95
3206;BME280;1615;53.602;11.418;2023-12-22T00:07:33;98062.38;;;7.33;58.37
3206;BME280;1615;53.602;11.418;2023-12-22T00:09:58;98118.28;;;7.51;58.62
3206;BME280;1615;53.602;11.418;2023-12-22T00:12:23;98096.03;;;7.49;59.42
3206;BME280;1615;53.602;11.418;2023-12-22T00:14:48;98161.94;;;7.63;59.69
3206;BME280;1615;53.602;11.418;2023-12-22T00:17:14;98097.59;;;7.38;59.32
3206;BME280;1615;53.602;11.418;2023-12-22T00:19:39;98116.56;;;7.46;60.15
3206;BME280;1615;53.602;11.418;2023-12-22T00:22:05;98116.66;;;7.38;60.10
3206;BME280;1615;53.602;11.418;2023-12-22T00:24:30;98124.50;;;7.39;60.19
3206;BME280;1615;53.602;11.418;2023-12-22T00:26:56;98073.56;;;7.07;59.87
3206;BME280;1615;53.602;11.418;2023-12-22T00:29:21;98121.09;;;7.42;60.76
3206;BME280;1615;53.602;11.418;2023-12-22T00:31:46;98145.75;;;7.46;59.95
3206;BME280;1615;53.602;11.418;2023-12-22T00:34:12;98080.00;;;7.03;60.30
3206;BME280;1615;53.602;11.418;2023-12-22T00:36:37;98133.34;;;7.36;60.65
3206;BME280;1615;53.602;11.418;2023-12-22T00:39:02;98196.19;;;7.52;60.33
3206;BME280;1615;53.602;11.418;2023-12-22T00:41:28;98153.44;;;7.32;60.20
3206;BME280;1615;53.602;11.418;2023-12-22T00:43:53;98127.84;;;7.12;61.08
3206;BME280;1615;53.602;11.418;2023-12-22T00:46:18;98155.69;;;7.30;61.71
3206;BME280;1615;53.602;11.418;2023-12-22T00:48:45;98134.25;;;7.08;62.08
3206;BME280;1615;53.602;11.418;2023-12-22T00:51:10;98166.47;;;7.26;61.17
3206;BME280;1615;53.602;11.418;2023-12-22T00:53:35;98195.81;;;7.41;62.09
3206;BME280;1615;53.602;11.418;2023-12-22T00:56:01;98081.91;;;6.70;61.60
3206;BME280;1615;53.602;11.418;2023-12-22T00:58:28;98041.06;;;6.37;61.35
3206;BME280;1615;53.602;11.418;2023-12-22T01:00:53;98159.72;;;7.12;61.21
3206;BME280;1615;53.602;11.418;2023-12-22T01:03:19;98041.34;;;6.24;61.66
3206;BME280;1615;53.602;11.418;2023-12-22T01:05:44;98174.88;;;7.01;61.43
3206;BME280;1615;53.602;11.418;2023-12-22T01:08:09;98106.34;;;6.58;61.36
3206;BME280;1615;53.602;11.418;2023-12-22T01:10:35;98160.78;;;6.99;60.44
3206;BME280;1615;53.602;11.418;2023-12-22T01:13:00;98199.03;;;7.23;60.29
3206;BME280;1615;53.602;11.418;2023-12-22T01:15:25;98100.22;;;6.61;60.83
3206;BME280;1615;53.602;11.418;2023-12-22T01:17:51;98208.34;;;7.22;60.10
3206;BME280;1615;53.602;11.418;2023-12-22T01:20:16;98193.72;;;7.06;60.77
3206;BME280;1615;53.602;11.418;2023-12-22T01:22:41;98217.63;;;7.21;59.93
3206;BME280;1615;53.602;11.418;2023-12-22T01:25:07;98197.91;;;7.03;60.67
3206;BME280;1615;53.602;11.418;2023-12-22T01:27:32;98199.81;;;7.03;60.34
3206;BME280;1615;53.602;11.418;2023-12-22T01:29:57;98102.22;;;6.31;61.22
3206;BME280;1615;53.602;11.418;2023-12-22T01:32:23;98230.53;;;7.12;60.99
3206;BME280;1615;53.602;11.418;2023-12-22T01:34:48;98206.00;;;7.12;61.37
3206;BME280;1615;53.602;11.418;2023-12-22T01:37:13;98187.81;;;7.04;61.87
3206;BME280;1615;53.602;11.418;2023-12-22T01:39:39;98179.44;;;6.88;61.73
3206;BME280;1615;53.602;11.418;2023-12-22T01:42:04;98212.59;;;7.11;61.54
3206;BME280;1615;53.602;11.418;2023-12-22T01:44:30;98181.25;;;7.05;61.53
3206;BME280;1615;53.602;11.418;2023-12-22T01:46:55;98193.81;;;6.97;61.70
3206;BME280;1615;53.602;11.418;2023-12-22T01:49:21;98208.72;;;7.12;61.59
3206;BME280;1615;53.602;11.418;2023-12-22T01:51:47;98224.13;;;7.08;61.75
3206;BME280;1615;53.602;11.418;2023-12-22T01:54:14;98238.50;;;7.17;60.50
3206;BME280;1615;53.602;11.418;2023-12-22T01:56:43;98248.75;;;7.20;61.27
3206;BME280;1615;53.602;11.418;2023-12-22T01:59:10;98244.16;;;7.12;61.55
3206;BME280;1615;53.602;11.418;2023-12-22T02:01:35;98169.00;;;6.70;60.82
3206;BME280;1615;53.602;11.418;2023-12-22T02:04:02;98195.19;;;7.03;61.47
3206;BME280;1615;53.602;11.418;2023-12-22T02:06:30;98244.06;;;7.20;61.59
3206;BME280;1615;53.602;11.418;2023-12-22T02:08:57;98236.22;;;7.19;61.38
3206;BME280;1615;53.602;11.418;2023-12-22T02:11:23;98170.88;;;6.78;61.62
3206;BME280;1615;53.602;11.418;2023-12-22T02:13:48;98209.00;;;6.98;61.75
3206;BME280;1615;53.602;11.418;2023-12-22T02:16:32;98213.38;;;7.11;62.06
3206;BME280;1615;53.602;11.418;2023-12-22T02:19:11;98204.88;;;6.92;62.33
3206;BME280;1615;53.602;11.418;2023-12-22T02:22:07;98230.25;;;7.25;63.17
3206;BME280;1615;53.602;11.418;2023-12-22T02:24:32;98127.88;;;6.51;64.58
3206;BME280;1615;53.602;11.418;2023-12-22T02:29:32;98219.63;;;7.12;64.87
3206;BME280;1615;53.602;11.418;2023-12-22T02:32:02;98211.13;;;7.13;64.59
3206;BME280;1615;53.602;11.418;2023-12-22T02:34:31;98178.31;;;6.89;64.97
3206;BME280;1615;53.602;11.418;2023-12-22T02:36:58;98158.19;;;6.82;64.57
3206;BME280;1615;53.602;11.418;2023-12-22T02:39:24;98188.69;;;6.96;64.61
3206;BME280;1615;53.602;11.418;2023-12-22T02:41:49;98210.81;;;7.15;64.42
3206;BME280;1615;53.602;11.418;2023-12-22T02:44:15;98197.19;;;7.15;65.23
3206;BME280;1615;53.602;11.418;2023-12-22T02:46:40;98222.03;;;7.13;65.50
3206;BME280;1615;53.602;11.418;2023-12-22T02:49:07;98012.66;;;5.85;66.75
3206;BME280;1615;53.602;11.418;2023-12-22T02:51:32;98173.00;;;6.93;67.36
3206;BME280;1615;53.602;11.418;2023-12-22T02:53:57;98191.19;;;7.01;68.61
3206;BME280;1615;53.602;11.418;2023-12-22T02:56:22;98185.59;;;6.77;69.89
3206;BME280;1615;53.602;11.418;2023-12-22T02:58:48;97991.50;;;5.62;71.05
3206;BME280;1615;53.602;11.418;2023-12-22T03:01:13;98214.06;;;6.88;72.84
3206;BME280;1615;53.602;11.418;2023-12-22T03:03:38;98186.66;;;6.64;74.43
3206;BME280;1615;53.602;11.418;2023-12-22T03:06:03;98159.84;;;6.54;75.29
3206;BME280;1615;53.602;11.418;2023-12-22T03:08:29;98212.72;;;6.94;76.34
3206;BME280;1615;53.602;11.418;2023-12-22T03:10:54;98213.50;;;6.74;77.91
3206;BME280;1615;53.602;11.418;2023-12-22T03:13:19;98083.47;;;5.89;80.66
3206;BME280;1615;53.602;11.418;2023-12-22T03:15:45;98224.34;;;6.82;82.98
3206;BME280;1615;53.602;11.418;2023-12-22T03:18:12;98216.03;;;6.79;85.44
3206;BME280;1615;53.602;11.418;2023-12-22T03:20:37;98204.72;;;6.68;86.37
3206;BME280;1615;53.602;11.418;2023-12-22T03:23:03;98082.84;;;5.83;87.09
3206;BME280;1615;53.602;11.418;2023-12-22T03:25:28;98151.22;;;5.94;87.21
3206;BME280;1615;53.602;11.418;2023-12-22T03:27:54;98238.25;;;6.60;86.92
3206;BME280;1615;53.602;11.418;2023-12-22T03:30:19;98178.25;;;6.28;86.07
3206;BME280;1615;53.602;11.418;2023-12-22T03:32:44;98121.09;;;6.07;87.21
3206;BME280;1615;53.602;11.418;2023-12-22T03:35:09;98219.78;;;6.66;87.05
3206;BME280;1615;53.602;11.418;2023-12-22T03:37:35;98237.75;;;6.58;91.04
3206;BME280;1615;53.602;11.418;2023-12-22T03:40:00;98222.44;;;6.25;94.27
3206;BME280;1615;53.602;11.418;2023-12-22T03:42:25;98248.09;;;6.44;98.05
3206;BME280;1615;53.602;11.418;2023-12-22T03:44:50;98218.03;;;6.03;100.00
3206;BME280;1615;53.602;11.418;2023-12-22T03:47:16;98206.09;;;5.79;100.00
3206;BME280;1615;53.602;11.418;2023-12-22T03:49:41;98135.41;;;5.33;100.00
3206;BME280;1615;53.602;11.418;2023-12-22T03:52:06;98210.00;;;5.61;100.00
3206;BME280;1615;53.602;11.418;2023-12-22T03:54:32;98247.66;;;5.79;100.00
3206;BME280;1615;53.602;11.418;2023-12-22T03:56:57;98200.91;;;5.48;100.00
3206;BME280;1615;53.602;11.418;2023-12-22T03:59:22;98212.38;;;5.54;100.00
3206;BME280;1615;53.602;11.418;2023-12-22T04:01:51;98209.19;;;5.52;100.00
3206;BME280;1615;53.602;11.418;2023-12-22T04:04:20;98146.66;;;5.06;100.00
3206;BME280;1615;53.602;11.418;2023-12-22T04:06:48;98248.00;;;5.69;100.00
3206;BME280;1615;53.602;11.418;2023-12-22T04:09:13;98223.75;;;5.56;100.00
3206;BME280;1615;53.602;11.418;2023-12-22T04:11:38;98224.22;;;5.58;100.00
3206;BME280;1615;53.602;11.418;2023-12-22T04:14:05;98241.75;;;5.77;100.00
3206;BME280;1615;53.602;11.418;2023-12-22T04:16:30;98234.25;;;5.74;100.00
3206;BME280;1615;53.602;11.418;2023-12-22T04:18:55;98212.38;;;5.71;100.00
3206;BME280;1615;53.602;11.418;2023-12-22T04:21:20;98237.13;;;5.78;100.00
3206;BME280;1615;53.602;11.418;2023-12-22T04:23:46;98166.25;;;5.37;99.44
3206;BME280;1615;53.602;11.418;2023-12-22T04:26:11;98200.41;;;5.63;98.67
3206;BME280;1615;53.602;11.418;2023-12-22T04:28:36;98224.16;;;5.75;96.85
3206;BME280;1615;53.602;11.418;2023-12-22T04:31:02;98247.78;;;6.00;96.58
3206;BME280;1615;53.602;11.418;2023-12-22T04:33:27;98238.81;;;6.08;95.18
3206;BME280;1615;53.602;11.418;2023-12-22T04:35:52;98215.81;;;5.97;95.45
3206;BME280;1615;53.602;11.418;2023-12-22T04:38:18;98208.78;;;5.96;93.93
3206;BME280;1615;53.602;11.418;2023-12-22T04:40:43;98177.97;;;5.83;92.68
3206;BME280;1615;53.602;11.418;2023-12-22T04:43:09;98152.59;;;5.71;93.48
3206;BME280;1615;53.602;11.418;2023-12-22T04:45:34;98237.34;;;6.19;94.39
3206;BME280;1615;53.602;11.418;2023-12-22T04:47:59;98253.31;;;6.20;96.08
3206;BME280;1615;53.602;11.418;2023-12-22T04:50:24;98044.97;;;4.86;98.20
3206;BME280;1615;53.602;11.418;2023-12-22T04:52:50;98218.72;;;5.92;97.69
3206;BME280;1615;53.602;11.418;2023-12-22T04:55:15;98246.13;;;6.16;98.85
3206;BME280;1615;53.602;11.418;2023-12-22T04:57:40;98245.19;;;6.12;100.00
3206;BME280;1615;53.602;11.418;2023-12-22T05:00:06;98228.91;;;6.03;100.00
3206;BME280;1615;53.602;11.418;2023-12-22T05:02:32;98164.09;;;5.68;100.00
3206;BME280;1615;53.602;11.418;2023-12-22T05:04:57;98188.69;;;5.80;99.03
3206;BME280;1615;53.602;11.418;2023-12-22T05:07:22;98246.97;;;6.08;97.68
3206;BME280;1615;53.602;11.418;2023-12-22T05:09:48;98229.84;;;6.07;96.81
3206;BME280;1615;53.602;11.418;2023-12-22T05:12:13;98236.72;;;6.13;95.71
3206;BME280;1615;53.602;11.418;2023-12-22T05:14:39;98225.00;;;6.21;97.13
3206;BME280;1615;53.602;11.418;2023-12-22T05:17:04;98222.50;;;6.08;97.00
3206;BME280;1615;53.602;11.418;2023-12-22T05:19:29;98214.16;;;6.13;98.60
3206;BME280;1615;53.602;11.418;2023-12-22T05:21:54;98232.56;;;6.07;98.89
3206;BME280;1615;53.602;11.418;2023-12-22T05:24:22;98078.13;;;5.17;98.97
3206;BME280;1615;53.602;11.418;2023-12-22T05:26:47;98265.59;;;6.35;99.90
3206;BME280;1615;53.602;11.418;2023-12-22T05:29:13;98228.59;;;6.05;96.85
3206;BME280;1615;53.602;11.418;2023-12-22T05:31:38;98260.19;;;6.18;98.71
3206;BME280;1615;53.602;11.418;2023-12-22T05:34:04;98249.25;;;5.97;100.00
3206;BME280;1615;53.602;11.418;2023-12-22T05:36:30;98280.41;;;6.00;100.00
3206;BME280;1615;53.602;11.418;2023-12-22T05:38:55;98251.38;;;5.58;100.00
3206;BME280;1615;53.602;11.418;2023-12-22T05:41:23;98276.16;;;5.73;100.00
3206;BME280;1615;53.602;11.418;2023-12-22T05:43:48;98240.53;;;5.41;100.00
3206;BME280;1615;53.602;11.418;2023-12-22T05:46:13;98251.09;;;5.34;100.00
3206;BME280;1615;53.602;11.418;2023-12-22T05:48:39;98276.16;;;5.22;100.00
3206;BME280;1615;53.602;11.418;2023-12-22T05:51:04;98305.22;;;5.30;100.00
3206;BME280;1615;53.602;11.418;2023-12-22T05:53:32;98235.09;;;4.81;100.00
3206;BME280;1615;53.602;11.418;2023-12-22T05:55:58;98309.88;;;5.13;100.00
3206;BME280;1615;53.602;11.418;2023-12-22T05:58:23;98306.66;;;5.11;100.00
3206;BME280;1615;53.602;11.418;2023-12-22T06:00:48;98316.56;;;5.07;100.00
3206;BME280;1615;53.602;11.418;2023-12-22T06:03:14;98256.78;;;4.73;100.00
3206;BME280;1615;53.602;11.418;2023-12-22T06:05:39;98144.97;;;4.03;100.00
3206;BME280;1615;53.602;11.418;2023-12-22T06:08:04;98258.22;;;4.70;100.00
3206;BME280;1615;53.602;11.418;2023-12-22T06:10:30;98315.75;;;5.06;100.00
3206;BME280;1615;53.602;11.418;2023-12-22T06:12:55;98364.31;;;4.99;100.00
3206;BME280;1615;53.602;11.418;2023-12-22T06:15:23;98294.19;;;4.93;100.00
3206;BME280;1615;53.602;11.418;2023-12-22T06:17:48;98088.59;;;3.66;100.00
3206;BME280;1615;53.602;11.418;2023-12-22T06:20:13;98319.28;;;5.07;100.00
3206;BME280;1615;53.602;11.418;2023-12-22T06:22:38;98310.19;;;5.11;100.00
3206;BME280;1615;53.602;11.418;2023-12-22T06:25:04;98310.97;;;5.03;100.00
3206;BME280;1615;53.602;11.418;2023-12-22T06:27:35;98294.81;;;4.98;100.00
3206;BME280;1615;53.602;11.418;2023-12-22T06:30:02;98281.88;;;4.87;100.00
3206;BME280;1615;53.602;11.418;2023-12-22T06:32:28;98298.50;;;5.02;100.00
3206;BME280;1615;53.602;11.418;2023-12-22T06:34:53;98284.00;;;5.07;100.00
3206;BME280;1615;53.602;11.418;2023-12-22T06:37:18;98299.47;;;5.15;100.00
3206;BME280;1615;53.602;11.418;2023-12-22T06:39:44;98299.94;;;5.17;100.00
3206;BME280;1615;53.602;11.418;2023-12-22T06:42:09;98304.44;;;5.21;100.00
3206;BME280;1615;53.602;11.418;2023-12-22T06:44:37;98302.50;;;5.22;98.08
3206;BME280;1615;53.602;11.418;2023-12-22T06:47:03;98282.41;;;5.23;95.43
3206;BME280;1615;53.602;11.418;2023-12-22T06:49:28;98338.63;;;5.48;92.24
3206;BME280;1615;53.602;11.418;2023-12-22T06:51:53;98284.47;;;5.17;92.05
3206;BME280;1615;53.602;11.418;2023-12-22T06:54:19;98289.75;;;5.31;89.39
3206;BME280;1615;53.602;11.418;2023-12-22T06:56:44;98336.09;;;5.60;88.03
3206;BME280;1615;53.602;11.418;2023-12-22T06:59:09;98319.63;;;5.48;88.78
3206;BME280;1615;53.602;11.418;2023-12-22T07:01:37;98347.44;;;5.62;86.03
3206;BME280;1615;53.602;11.418;2023-12-22T07:04:04;98237.34;;;4.88;85.75
3206;BME280;1615;53.602;11.418;2023-12-22T07:06:31;98269.31;;;5.08;84.88
3206;BME280;1615;53.602;11.418;2023-12-22T07:11:41;98352.88;;;5.36;84.95
3206;BME280;1615;53.602;11.418;2023-12-22T07:14:06;98348.22;;;5.62;85.86
3206;BME280;1615;53.602;11.418;2023-12-22T07:16:33;98356.22;;;5.50;86.05
3206;BME280;1615;53.602;11.418;2023-12-22T07:18:58;98298.19;;;5.12;84.27
3206;BME280;1615;53.602;11.418;2023-12-22T07:21:23;98187.81;;;4.40;84.19
3206;BME280;1615;53.602;11.418;2023-12-22T07:23:49;98354.00;;;5.44;84.39
3206;BME280;1615;53.602;11.418;2023-12-22T07:26:14;98280.47;;;4.98;84.31
3206;BME280;1615;53.602;11.418;2023-12-22T07:28:39;98354.00;;;5.44;84.82
3206;BME280;1615;53.602;11.418;2023-12-22T07:31:05;98386.44;;;5.57;86.09
3206;BME280;1615;53.602;11.418;2023-12-22T07:33:31;98382.75;;;5.45;85.37
3206;BME280;1615;53.602;11.418;2023-12-22T07:35:56;98338.63;;;5.22;85.39
3206;BME280;1615;53.602;11.418;2023-12-22T07:38:21;98407.69;;;5.64;85.93
3206;BME280;1615;53.602;11.418;2023-12-22T07:40:46;98392.50;;;5.46;86.17
3206;BME280;1615;53.602;11.418;2023-12-22T07:43:12;98433.25;;;5.63;86.38
3206;BME280;1615;53.602;11.418;2023-12-22T07:45:38;98435.97;;;5.63;86.28
3206;BME280;1615;53.602;11.418;2023-12-22T07:48:04;98431.81;;;5.57;86.83
3206;BME280;1615;53.602;11.418;2023-12-22T07:50:29;98441.75;;;5.70;86.64
3206;BME280;1615;53.602;11.418;2023-12-22T07:52:54;98433.44;;;5.66;86.76
3206;BME280;1615;53.602;11.418;2023-12-22T07:55:20;98408.19;;;5.57;86.24
3206;BME280;1615;53.602;11.418;2023-12-22T07:57:45;98448.19;;;5.91;85.46
3206;BME280;1615;53.602;11.418;2023-12-22T08:00:11;98441.47;;;5.80;83.63
3206;BME280;1615;53.602;11.418;2023-12-22T08:02:37;98468.34;;;5.90;81.19
3206;BME280;1615;53.602;11.418;2023-12-22T08:05:02;98457.00;;;5.88;80.02
3206;BME280;1615;53.602;11.418;2023-12-22T08:07:27;98467.22;;;5.91;77.95
3206;BME280;1615;53.602;11.418;2023-12-22T08:09:53;98426.88;;;5.67;77.72
3206;BME280;1615;53.602;11.418;2023-12-22T08:12:18;98469.94;;;5.99;77.50
3206;BME280;1615;53.602;11.418;2023-12-22T08:14:44;98389.31;;;5.44;76.54
3206;BME280;1615;53.602;11.418;2023-12-22T08:17:10;98467.22;;;5.91;75.63
3206;BME280;1615;53.602;11.418;2023-12-22T08:19:36;98373.78;;;5.36;75.61
3206;BME280;1615;53.602;11.418;2023-12-22T08:22:02;98484.50;;;6.03;75.80
3206;BME280;1615;53.602;11.418;2023-12-22T08:24:27;98467.22;;;5.91;75.08
3206;BME280;1615;53.602;11.418;2023-12-22T08:26:53;98439.38;;;5.77;74.25
3206;BME280;1615;53.602;11.418;2023-12-22T08:29:18;98452.47;;;5.75;75.38
3206;BME280;1615;53.602;11.418;2023-12-22T08:31:46;98428.66;;;5.72;76.46
3206;BME280;1615;53.602;11.418;2023-12-22T08:34:12;98434.41;;;5.70;75.99
3206;BME280;1615;53.602;11.418;2023-12-22T08:36:37;98465.16;;;6.05;77.17
3206;BME280;1615;53.602;11.418;2023-12-22T08:39:03;98557.31;;;6.32;75.87
3206;BME280;1615;53.602;11.418;2023-12-22T08:41:30;98483.88;;;6.15;76.22
3206;BME280;1615;53.602;11.418;2023-12-22T08:44:01;98527.84;;;6.42;76.21
3206;BME280;1615;53.602;11.418;2023-12-22T08:46:26;98428.97;;;5.62;73.91
3206;BME280;1615;53.602;11.418;2023-12-22T08:48:52;98545.66;;;6.40;73.50
3206;BME280;1615;53.602;11.418;2023-12-22T08:51:17;98510.41;;;6.09;73.94
3206;BME280;1615;53.602;11.418;2023-12-22T08:53:42;98544.84;;;6.39;75.09
3206;BME280;1615;53.602;11.418;2023-12-22T08:56:08;98564.84;;;6.35;75.37
3206;BME280;1615;53.602;11.418;2023-12-22T08:58:33;98405.75;;;5.39;75.89
3206;BME280;1615;53.602;11.418;2023-12-22T09:00:58;98553.78;;;6.14;75.28
3206;BME280;1615;53.602;11.418;2023-12-22T09:03:24;98557.44;;;6.01;76.09
3206;BME280;1615;53.602;11.418;2023-12-22T09:05:49;98562.25;;;6.13;75.48
3206;BME280;1615;53.602;11.418;2023-12-22T09:08:14;98503.78;;;5.76;75.65
3206;BME280;1615;53.602;11.418;2023-12-22T09:10:40;98520.00;;;5.90;76.08
3206;BME280;1615;53.602;11.418;2023-12-22T09:13:05;98539.16;;;5.85;75.64
3206;BME280;1615;53.602;11.418;2023-12-22T09:15:31;98550.41;;;5.92;77.04
3206;BME280;1615;53.602;11.418;2023-12-22T09:17:56;98594.88;;;6.13;77.86
3206;BME280;1615;53.602;11.418;2023-12-22T09:20:22;98597.13;;;6.11;77.63
3206;BME280;1615;53.602;11.418;2023-12-22T09:22:47;98534.81;;;5.75;77.48
3206;BME280;1615;53.602;11.418;2023-12-22T09:25:13;98564.13;;;5.87;76.36
3206;BME280;1615;53.602;11.418;2023-12-22T09:27:38;98584.13;;;5.99;76.45
3206;BME280;1615;53.602;11.418;2023-12-22T09:30:04;98598.06;;;5.98;77.16
3206;BME280;1615;53.602;11.418;2023-12-22T09:32:32;98509.31;;;5.46;77.27
3206;BME280;1615;53.602;11.418;2023-12-22T09:34:57;98603.03;;;6.04;76.36
3206;BME280;1615;53.602;11.418;2023-12-22T09:37:24;98627.03;;;6.02;76.42
3206;BME280;1615;53.602;11.418;2023-12-22T09:39:49;98592.00;;;6.09;75.83
3206;BME280;1615;53.602;11.418;2023-12-22T09:42:14;98553.06;;;5.83;74.85
3206;BME280;1615;53.602;11.418;2023-12-22T09:44:42;98634.63;;;6.31;73.57
3206;BME280;1615;53.602;11.418;2023-12-22T09:47:09;98615.59;;;6.39;74.11
3206;BME280;1615;53.602;11.418;2023-12-22T09:49:37;98648.53;;;6.38;72.16
3206;BME280;1615;53.602;11.418;2023-12-22T09:52:04;98614.78;;;6.39;71.91
3206;BME280;1615;53.602;11.418;2023-12-22T09:54:31;98515.13;;;5.78;71.97
3206;BME280;1615;53.602;11.418;2023-12-22T09:56:57;98633.03;;;6.47;71.79
3206;BME280;1615;53.602;11.418;2023-12-22T09:59:25;98631.09;;;6.30;70.76
3206;BME280;1615;53.602;11.418;2023-12-22T10:01:50;98654.50;;;6.57;71.29
3206;BME280;1615;53.602;11.418;2023-12-22T10:04:17;98649.06;;;6.65;70.88
3206;BME280;1615;53.602;11.418;2023-12-22T10:06:44;98633.50;;;6.40;71.19
3206;BME280;1615;53.602;11.418;2023-12-22T10:09:12;98538.56;;;5.88;72.72
3206;BME280;1615;53.602;11.418;2023-12-22T10:11:40;98518.06;;;5.82;73.22
3206;BME280;1615;53.602;11.418;2023-12-22T10:14:09;98630.63;;;6.54;72.54
3206;BME280;1615;53.602;11.418;2023-12-22T10:16:34;98607.25;;;6.44;71.29
3206;BME280;1615;53.602;11.418;2023-12-22T10:19:01;98647.63;;;6.68;71.34
3206;BME280;1615;53.602;11.418;2023-12-22T10:21:26;98627.44;;;6.60;70.53
3206;BME280;1615;53.602;11.418;2023-12-22T10:23:52;98586.94;;;6.42;70.29
3206;BME280;1615;53.602;11.418;2023-12-22T10:26:17;98571.22;;;6.39;69.97
3206;BME280;1615;53.602;11.418;2023-12-22T10:28:42;98638.81;;;6.71;70.76
3206;BME280;1615;53.602;11.418;2023-12-22T10:31:08;98587.41;;;6.52;71.36
3206;BME280;1615;53.602;11.418;2023-12-22T10:33:34;98634.84;;;6.85;70.79
3206;BME280;1615;53.602;11.418;2023-12-22T10:35:59;98625.69;;;6.73;70.84
3206;BME280;1615;53.602;11.418;2023-12-22T10:38:27;98620.88;;;6.78;70.21
3206;BME280;1615;53.602;11.418;2023-12-22T10:40:57;98621.03;;;6.73;69.31
3206;BME280;1615;53.602;11.418;2023-12-22T10:43:22;98379.34;;;5.22;68.79
3206;BME280;1615;53.602;11.418;2023-12-22T10:45:48;98612.56;;;6.75;68.53
3206;BME280;1615;53.602;11.418;2023-12-22T10:48:13;98559.72;;;6.42;69.68
3206;BME280;1615;53.602;11.418;2023-12-22T10:50:39;98556.34;;;6.45;68.58
3206;BME280;1615;53.602;11.418;2023-12-22T10:53:09;98584.38;;;6.62;69.88
3206;BME280;1615;53.602;11.418;2023-12-22T10:55:35;98585.03;;;6.51;68.10
3206;BME280;1615;53.602;11.418;2023-12-22T10:58:03;98608.25;;;6.65;69.71
3206;BME280;1615;53.602;11.418;2023-12-22T11:00:28;98665.72;;;6.98;68.41
3206;BME280;1615;53.602;11.418;2023-12-22T11:03:00;98630.47;;;6.76;69.32
3206;BME280;1615;53.602;11.418;2023-12-22T11:05:27;98659.78;;;7.04;69.32
3206;BME280;1615;53.602;11.418;2023-12-22T11:07:54;98667.66;;;7.06;69.01
3206;BME280;1615;53.602;11.418;2023-12-22T11:10:20;98679.34;;;7.06;68.92
3206;BME280;1615;53.602;11.418;2023-12-22T11:12:47;98671.00;;;7.03;69.34
3206;BME280;1615;53.602;11.418;2023-12-22T11:15:12;98591.41;;;6.55;69.96
3206;BME280;1615;53.602;11.418;2023-12-22T11:17:39;98521.13;;;6.14;70.14
3206;BME280;1615;53.602;11.418;2023-12-22T11:20:09;98618.81;;;6.75;69.66
3206;BME280;1615;53.602;11.418;2023-12-22T11:22:35;98693.91;;;7.10;69.08
3206;BME280;1615;53.602;11.418;2023-12-22T11:25:02;98695.03;;;7.09;70.73
3206;BME280;1615;53.602;11.418;2023-12-22T11:27:28;98679.53;;;7.01;70.45
3206;BME280;1615;53.602;11.418;2023-12-22T11:29:54;98672.28;;;7.05;71.13
3206;BME280;1615;53.602;11.418;2023-12-22T11:32:20;98663.34;;;6.96;71.18
3206;BME280;1615;53.602;11.418;2023-12-22T11:34:47;98678.69;;;7.09;72.45
3206;BME280;1615;53.602;11.418;2023-12-22T11:37:13;98710.06;;;7.41;72.70
3206;BME280;1615;53.602;11.418;2023-12-22T11:39:42;98602.63;;;6.62;71.61
3206;BME280;1615;53.602;11.418;2023-12-22T11:42:16;98649.88;;;7.00;72.94
3206;BME280;1615;53.602;11.418;2023-12-22T11:44:42;98671.47;;;7.22;73.36
3206;BME280;1615;53.602;11.418;2023-12-22T11:47:09;98579.75;;;6.54;72.85
3206;BME280;1615;53.602;11.418;2023-12-22T11:49:37;98622.16;;;6.81;73.50
3206;BME280;1615;53.602;11.418;2023-12-22T11:52:13;98631.13;;;6.90;74.25
3206;BME280;1615;53.602;11.418;2023-12-22T11:54:52;98675.00;;;7.05;73.37
3206;BME280;1615;53.602;11.418;2023-12-22T11:59:55;98618.31;;;6.48;72.99
3206;BME280;1615;53.602;11.418;2023-12-22T12:02:21;98652.75;;;6.78;72.98
3206;BME280;1615;53.602;11.418;2023-12-22T12:04:57;98662.69;;;6.74;73.19
3206;BME280;1615;53.602;11.418;2023-12-22T12:07:46;98669.56;;;6.80;72.19
3206;BME280;1615;53.602;11.418;2023-12-22T12:15:33;98650.66;;;7.00;70.25
3206;BME280;1615;53.602;11.418;2023-12-22T12:17:58;98668.63;;;7.10;70.56
3206;BME280;1615;53.602;11.418;2023-12-22T12:20:24;98583.09;;;6.60;70.98
3206;BME280;1615;53.602;11.418;2023-12-22T12:22:49;98622.47;;;6.71;70.01
3206;BME280;1615;53.602;11.418;2023-12-22T12:25:17;98648.09;;;6.95;70.35
3206;BME280;1615;53.602;11.418;2023-12-22T12:27:45;98670.84;;;6.99;69.76
3206;BME280;1615;53.602;11.418;2023-12-22T12:30:11;98620.09;;;6.69;71.45
3206;BME280;1615;53.602;11.418;2023-12-22T12:32:37;98662.19;;;7.06;71.01
3206;BME280;1615;53.602;11.418;2023-12-22T12:35:04;98648.91;;;6.87;69.65
3206;BME280;1615;53.602;11.418;2023-12-22T12:37:29;98572.50;;;6.50;68.88
3206;BME280;1615;53.602;11.418;2023-12-22T12:39:58;98656.59;;;7.02;68.85
3206;BME280;1615;53.602;11.418;2023-12-22T12:42:28;98571.59;;;6.46;67.49
3206;BME280;1615;53.602;11.418;2023-12-22T12:44:54;98651.00;;;6.99;68.37
3206;BME280;1615;53.602;11.418;2023-12-22T12:47:19;98661.38;;;7.05;67.15
3206;BME280;1615;53.602;11.418;2023-12-22T12:49:45;98652.59;;;7.00;66.93
3206;BME280;1615;53.602;11.418;2023-12-22T12:52:13;98669.91;;;7.04;66.37
3206;BME280;1615;53.602;11.418;2023-12-22T12:54:39;98674.06;;;7.10;67.00
3206;BME280;1615;53.602;11.418;2023-12-22T12:57:04;98667.50;;;6.94;67.63
3206;BME280;1615;53.602;11.418;2023-12-22T12:59:30;98692.63;;;7.08;68.30
3206;BME280;1615;53.602;11.418;2023-12-22T13:01:55;98664.47;;;7.04;68.32
3206;BME280;1615;53.602;11.418;2023-12-22T13:04:22;98671.16;;;6.98;67.05
3206;BME280;1615;53.602;11.418;2023-12-22T13:06:48;98679.66;;;7.22;67.58
3206;BME280;1615;53.602;11.418;2023-12-22T13:09:14;98601.00;;;6.61;66.25
3206;BME280;1615;53.602;11.418;2023-12-22T13:11:41;98688.16;;;7.12;66.83
3206;BME280;1615;53.602;11.418;2023-12-22T13:14:11;98649.88;;;6.91;66.50
3206;BME280;1615;53.602;11.418;2023-12-22T13:16:37;98645.06;;;6.80;66.95
3206;BME280;1615;53.602;11.418;2023-12-22T13:19:04;98663.16;;;6.93;67.15
3206;BME280;1615;53.602;11.418;2023-12-22T13:21:30;98684.94;;;6.93;68.75
3206;BME280;1615;53.602;11.418;2023-12-22T13:24:12;98663.16;;;6.76;69.60
3206;BME280;1615;53.602;11.418;2023-12-22T13:26:38;98668.59;;;6.76;69.35